createdAt,value
2023-01-06T00:01:18.245Z,5.68
2023-01-06T00:03:48.820Z,6.38
2023-01-06T00:06:15.584Z,5.90
2023-01-06T00:08:42.206Z,5.95
2023-01-06T00:11:11.065Z,6.07
2023-01-06T00:13:38.425Z,6.20
2023-01-06T00:16:06.616Z,5.65
2023-01-06T00:18:33.601Z,6.25
2023-01-06T00:21:00.371Z,5.88
2023-01-06T00:23:27.157Z,5.88
2023-01-06T00:25:54.123Z,4.88
2023-01-06T00:28:20.880Z,5.07
2023-01-06T00:30:47.604Z,5.00
2023-01-06T00:33:14.457Z,5.55
2023-01-06T00:35:41.267Z,5.68
2023-01-06T00:38:07.858Z,5.38
2023-01-06T00:40:35.942Z,5.90
2023-01-06T00:43:03.202Z,6.25
2023-01-06T00:45:29.999Z,5.80
2023-01-06T00:47:56.627Z,5.57
2023-01-06T00:50:23.283Z,6.78
2023-01-06T00:52:49.960Z,5.68
2023-01-06T00:55:16.668Z,6.22
2023-01-06T00:57:43.703Z,6.88
2023-01-06T01:00:11.408Z,6.13
2023-01-06T01:02:38.258Z,5.88
2023-01-06T01:05:05.355Z,6.38
2023-01-06T01:07:32.030Z,6.35
2023-01-06T01:09:58.659Z,6.07
2023-01-06T01:12:25.383Z,6.05
2023-01-06T01:14:53.772Z,5.80
2023-01-06T01:17:26.547Z,5.93
2023-01-06T01:19:55.553Z,5.80
2023-01-06T01:22:24.122Z,6.60
2023-01-06T01:24:51.267Z,5.78
2023-01-06T01:27:18.892Z,4.57
2023-01-06T01:29:45.753Z,4.60
2023-01-06T01:32:12.380Z,5.30
2023-01-06T01:34:39.556Z,5.15
2023-01-06T01:37:06.220Z,6.10
2023-01-06T01:39:32.822Z,5.18
2023-01-06T01:42:00.012Z,4.90
2023-01-06T01:45:02.394Z,5.07
2023-01-06T01:47:32.262Z,4.78
2023-01-06T01:50:13.982Z,4.18
2023-01-06T01:52:43.101Z,4.30
2023-01-06T01:55:11.457Z,3.90
2023-01-06T01:57:44.112Z,3.45
2023-01-06T02:00:11.340Z,3.47
2023-01-06T02:02:39.067Z,3.75
2023-01-06T02:05:07.227Z,3.22
2023-01-06T02:07:34.186Z,3.85
2023-01-06T02:10:17.814Z,3.60
2023-01-06T02:12:47.440Z,4.20
2023-01-06T02:15:21.475Z,3.63
2023-01-06T02:18:12.668Z,4.20
2023-01-06T02:20:45.230Z,4.28
2023-01-06T02:23:24.436Z,3.70
2023-01-06T02:26:28.429Z,3.17
2023-01-06T02:29:19.859Z,3.33
2023-01-06T02:32:25.235Z,3.20
2023-01-06T02:35:10.407Z,3.22
2023-01-06T02:38:07.732Z,3.17
2023-01-06T02:41:03.367Z,2.60
2023-01-06T02:43:39.914Z,3.17
2023-01-06T02:46:06.506Z,4.45
2023-01-06T02:49:08.327Z,3.80
2023-01-06T02:52:11.510Z,3.10
2023-01-06T02:55:00.950Z,3.22
2023-01-06T02:57:38.487Z,3.10
2023-01-06T03:00:14.785Z,2.97
2023-01-06T03:02:47.218Z,3.65
2023-01-06T03:05:17.325Z,3.47
2023-01-06T03:07:46.671Z,3.63
2023-01-06T03:10:16.810Z,2.95
2023-01-06T03:12:52.403Z,3.45
2023-01-06T03:15:19.486Z,3.35
2023-01-06T03:17:46.359Z,3.10
2023-01-06T03:20:14.251Z,3.00
2023-01-06T03:22:41.484Z,3.75
2023-01-06T03:25:08.820Z,3.45
2023-01-06T03:27:36.000Z,3.35
2023-01-06T03:30:09.697Z,3.40
2023-01-06T03:32:58.077Z,3.30
2023-01-06T03:35:52.235Z,3.13
2023-01-06T03:38:49.192Z,3.60
2023-01-06T03:41:48.010Z,3.55
2023-01-06T03:44:26.476Z,4.10
2023-01-06T03:47:00.601Z,3.63
2023-01-06T03:49:33.686Z,4.45
2023-01-06T03:52:04.723Z,4.18
2023-01-06T03:54:41.201Z,3.50
2023-01-06T03:57:12.786Z,3.80
2023-01-06T03:59:47.415Z,4.95
2023-01-06T04:02:14.518Z,4.10
2023-01-06T04:04:41.624Z,4.30
2023-01-06T04:07:08.391Z,5.10
2023-01-06T04:09:35.027Z,4.97
2023-01-06T04:12:21.967Z,4.78
2023-01-06T04:14:48.682Z,4.75
2023-01-06T04:17:15.416Z,5.75
2023-01-06T04:19:42.037Z,4.50
2023-01-06T04:22:08.628Z,4.40
2023-01-06T04:24:35.473Z,4.80
2023-01-06T04:27:02.338Z,3.45
2023-01-06T04:29:29.222Z,4.30
2023-01-06T04:31:55.997Z,3.47
2023-01-06T04:34:22.706Z,4.00
2023-01-06T04:36:49.356Z,3.42
2023-01-06T04:39:16.063Z,3.38
2023-01-06T04:41:42.807Z,2.90
2023-01-06T04:44:09.410Z,3.45
2023-01-06T04:46:36.033Z,3.40
2023-01-06T04:49:02.910Z,3.28
2023-01-06T04:51:29.513Z,3.03
2023-01-06T04:53:56.615Z,2.70
2023-01-06T04:56:24.612Z,2.90
2023-01-06T04:58:56.494Z,3.03
2023-01-06T05:01:24.371Z,2.75
2023-01-06T05:03:51.646Z,3.00
2023-01-06T05:06:18.870Z,3.15
2023-01-06T05:08:46.475Z,2.97
2023-01-06T05:11:24.326Z,4.07
2023-01-06T05:13:51.618Z,3.78
2023-01-06T05:16:21.311Z,3.30
2023-01-06T05:18:48.187Z,2.97
2023-01-06T05:21:17.768Z,3.10
2023-01-06T05:23:44.636Z,2.97
2023-01-06T05:26:17.827Z,3.35
2023-01-06T05:28:44.625Z,2.50
2023-01-06T05:31:12.062Z,2.88
2023-01-06T05:33:39.201Z,2.67
2023-01-06T05:36:08.653Z,2.90
2023-01-06T05:38:35.206Z,3.15
2023-01-06T05:41:02.481Z,2.90
2023-01-06T05:43:29.801Z,2.58
2023-01-06T05:45:56.536Z,2.53
2023-01-06T05:48:27.912Z,2.83
2023-01-06T05:51:01.816Z,3.85
2023-01-06T05:53:31.526Z,3.00
2023-01-06T05:56:03.049Z,3.65
2023-01-06T05:58:29.856Z,3.38
2023-01-06T06:00:56.488Z,3.03
2023-01-06T06:03:23.152Z,3.05
2023-01-06T06:05:49.845Z,3.20
2023-01-06T06:08:16.618Z,3.05
2023-01-06T06:10:43.343Z,2.72
2023-01-06T06:13:09.979Z,3.05
2023-01-06T06:15:36.700Z,2.63
2023-01-06T06:18:03.731Z,2.72
2023-01-06T06:20:30.396Z,3.05
2023-01-06T06:22:57.037Z,3.67
2023-01-06T06:25:23.772Z,2.80
2023-01-06T06:27:50.559Z,2.30
2023-01-06T06:30:17.539Z,3.38
2023-01-06T06:32:44.248Z,2.03
2023-01-06T06:35:11.226Z,2.80
2023-01-06T06:37:37.863Z,2.17
2023-01-06T06:40:05.229Z,2.22
2023-01-06T06:42:31.904Z,2.08
2023-01-06T06:44:58.501Z,2.03
2023-01-06T06:47:25.069Z,2.60
2023-01-06T06:49:51.800Z,1.92
2023-01-06T06:52:18.529Z,2.03
2023-01-06T06:54:45.374Z,2.40
2023-01-06T06:57:12.302Z,2.85
2023-01-06T06:59:38.949Z,3.00
2023-01-06T07:02:06.361Z,2.55
2023-01-06T07:04:33.284Z,2.40
2023-01-06T07:06:59.922Z,2.53
2023-01-06T07:09:26.712Z,1.88
2023-01-06T07:11:54.617Z,3.63
2023-01-06T07:14:21.294Z,3.10
2023-01-06T07:16:48.110Z,2.75
2023-01-06T07:19:14.788Z,2.92
2023-01-06T07:21:41.504Z,2.60
2023-01-06T07:24:08.355Z,2.50
2023-01-06T07:26:35.192Z,1.95
2023-01-06T07:29:01.815Z,2.10
2023-01-06T07:31:28.627Z,1.90
2023-01-06T07:33:55.369Z,2.30
2023-01-06T07:36:22.087Z,1.98
2023-01-06T07:38:48.759Z,1.85
2023-01-06T07:41:15.635Z,1.25
2023-01-06T07:43:42.388Z,1.95
2023-01-06T07:46:09.547Z,1.60
2023-01-06T07:48:37.058Z,1.77
2023-01-06T07:51:03.956Z,1.55
2023-01-06T07:53:30.885Z,1.38
2023-01-06T07:55:57.571Z,1.85
2023-01-06T07:58:24.344Z,1.58
2023-01-06T08:00:51.425Z,1.35
2023-01-06T08:03:18.143Z,1.40
2023-01-06T08:05:44.933Z,1.40
2023-01-06T08:08:12.345Z,1.45
2023-01-06T08:10:40.521Z,1.10
2023-01-06T08:13:07.553Z,1.50
2023-01-06T08:15:36.958Z,1.30
2023-01-06T08:18:03.866Z,1.40
2023-01-06T08:20:30.492Z,1.35
2023-01-06T08:22:58.381Z,1.08
2023-01-06T08:25:25.396Z,1.25
2023-01-06T08:27:52.221Z,1.65
2023-01-06T08:30:21.864Z,1.00
2023-01-06T08:32:49.569Z,1.38
2023-01-06T08:35:16.316Z,1.10
2023-01-06T08:37:43.080Z,1.20
2023-01-06T08:40:10.314Z,1.10
2023-01-06T08:42:37.025Z,1.60
2023-01-06T08:45:04.178Z,0.88
2023-01-06T08:47:30.810Z,1.00
2023-01-06T08:49:57.440Z,1.10
2023-01-06T08:52:24.241Z,0.93
2023-01-06T08:54:50.907Z,1.05
2023-01-06T08:57:17.562Z,1.15
2023-01-06T08:59:44.340Z,1.15
2023-01-06T09:02:11.473Z,1.10
2023-01-06T09:04:38.963Z,0.47
2023-01-06T09:07:05.608Z,1.00
2023-01-06T09:09:33.006Z,0.80
2023-01-06T09:11:59.770Z,0.80
2023-01-06T09:14:26.427Z,0.60
2023-01-06T09:16:53.248Z,0.65
2023-01-06T09:19:20.714Z,0.85
2023-01-06T09:21:47.327Z,1.00
2023-01-06T09:24:14.972Z,1.17
2023-01-06T09:26:41.864Z,0.73
2023-01-06T09:29:08.624Z,0.70
2023-01-06T09:31:35.599Z,0.88
2023-01-06T09:34:02.368Z,0.50
2023-01-06T09:36:29.111Z,0.68
2023-01-06T09:38:55.811Z,0.80
2023-01-06T09:42:00.303Z,1.17
2023-01-06T09:44:48.663Z,1.50
2023-01-06T09:47:20.068Z,1.15
2023-01-06T09:50:02.910Z,1.07
2023-01-06T09:52:52.892Z,0.73
2023-01-06T09:55:34.980Z,0.82
2023-01-06T09:58:08.521Z,0.60
2023-01-06T10:00:48.205Z,0.75
2023-01-06T10:03:17.822Z,0.80
2023-01-06T10:06:02.328Z,1.08
2023-01-06T10:08:50.544Z,0.75
2023-01-06T10:11:31.344Z,0.70
2023-01-06T10:14:05.173Z,0.63
2023-01-06T10:17:05.858Z,0.60
2023-01-06T10:19:58.993Z,0.60
2023-01-06T10:22:25.616Z,0.88
2023-01-06T10:25:35.713Z,0.63
2023-01-06T10:28:13.302Z,0.40
2023-01-06T10:30:51.596Z,0.50
2023-01-06T10:33:33.727Z,0.50
2023-01-06T10:36:01.141Z,0.60
2023-01-06T10:38:35.572Z,0.60
2023-01-06T10:41:41.416Z,0.73
2023-01-06T10:44:11.697Z,0.60
2023-01-06T10:46:39.545Z,1.00
2023-01-06T10:49:13.622Z,0.73
2023-01-06T10:51:49.575Z,0.80
2023-01-06T10:54:22.310Z,0.82
2023-01-06T10:57:03.296Z,0.63
2023-01-06T10:59:33.176Z,0.90
2023-01-06T11:02:00.118Z,0.57
2023-01-06T11:04:28.149Z,0.65
2023-01-06T11:06:56.984Z,0.98
2023-01-06T11:09:42.815Z,1.10
2023-01-06T11:12:21.118Z,0.82
2023-01-06T11:14:58.903Z,0.82
2023-01-06T11:17:26.641Z,0.82
2023-01-06T11:20:18.025Z,1.20
2023-01-06T11:22:45.207Z,0.90
2023-01-06T11:25:20.760Z,1.02
2023-01-06T11:28:13.551Z,0.80
2023-01-06T11:30:51.578Z,0.70
2023-01-06T11:33:21.134Z,0.80
2023-01-06T11:35:48.470Z,0.68
2023-01-06T11:38:18.674Z,0.65
2023-01-06T11:40:48.038Z,1.20
2023-01-06T11:43:18.095Z,1.00
2023-01-06T11:45:50.001Z,1.23
2023-01-06T11:48:26.029Z,1.42
2023-01-06T11:51:00.467Z,1.20
2023-01-06T11:53:29.537Z,0.80
2023-01-06T11:56:02.600Z,1.00
2023-01-06T11:58:53.607Z,0.98
2023-01-06T12:01:32.531Z,1.05
2023-01-06T12:04:31.873Z,1.10
2023-01-06T12:07:27.586Z,1.00
2023-01-06T12:09:59.768Z,1.40
2023-01-06T12:12:28.396Z,0.60
2023-01-06T12:14:56.456Z,0.77
2023-01-06T12:17:35.137Z,0.93
2023-01-06T12:20:16.942Z,0.90
2023-01-06T12:22:54.278Z,1.05
2023-01-06T12:25:38.026Z,1.23
2023-01-06T12:28:18.099Z,1.08
2023-01-06T12:30:44.766Z,0.80
2023-01-06T12:33:51.628Z,0.65
2023-01-06T12:36:28.882Z,0.60
2023-01-06T12:38:58.113Z,0.77
2023-01-06T12:41:30.114Z,1.20
2023-01-06T12:44:27.557Z,0.82
2023-01-06T12:47:02.199Z,0.90
2023-01-06T12:49:42.255Z,1.08
2023-01-06T12:52:15.406Z,1.23
2023-01-06T12:54:46.585Z,0.80
2023-01-06T12:57:31.225Z,1.48
2023-01-06T13:00:21.972Z,1.10
2023-01-06T13:03:26.145Z,1.00
2023-01-06T13:06:10.868Z,1.05
2023-01-06T13:08:56.824Z,0.90
2023-01-06T13:11:23.376Z,1.10
2023-01-06T13:14:17.141Z,1.48
2023-01-06T13:17:28.783Z,1.52
2023-01-06T13:19:57.990Z,1.95
2023-01-06T13:22:50.656Z,1.40
2023-01-06T13:28:00.644Z,1.35
2023-01-06T13:30:48.433Z,1.30
2023-01-06T13:33:52.836Z,1.67
2023-01-06T13:36:53.506Z,1.23
2023-01-06T13:39:29.903Z,1.20
2023-01-06T13:42:00.097Z,1.13
2023-01-06T13:44:34.527Z,1.50
2023-01-06T13:47:11.558Z,1.40
2023-01-06T13:49:40.223Z,1.35
2023-01-06T13:52:23.850Z,1.48
2023-01-06T13:54:51.185Z,1.33
2023-01-06T13:57:29.201Z,2.00
2023-01-06T14:00:04.916Z,1.58
2023-01-06T14:02:34.611Z,1.52
2023-01-06T14:05:20.136Z,1.75
2023-01-06T14:08:04.167Z,1.77
2023-01-06T14:10:37.903Z,1.70
2023-01-06T14:13:26.603Z,1.50
2023-01-06T14:16:03.483Z,3.30
2023-01-06T14:18:41.120Z,2.05
2023-01-06T14:21:10.663Z,1.83
2023-01-06T14:23:37.664Z,1.52
2023-01-06T14:26:04.810Z,1.77
2023-01-06T14:28:33.476Z,2.10
2023-01-06T14:31:38.921Z,1.73
2023-01-06T14:34:11.763Z,1.63
2023-01-06T14:36:38.889Z,1.83
2023-01-06T14:39:10.149Z,2.00
2023-01-06T14:41:40.467Z,2.20
2023-01-06T14:44:20.141Z,1.75
2023-01-06T14:46:53.117Z,1.92
2023-01-06T14:49:27.915Z,2.00
2023-01-06T14:51:58.126Z,1.70
2023-01-06T14:54:33.530Z,1.88
2023-01-06T14:57:01.236Z,1.88
2023-01-06T14:59:27.941Z,1.92
2023-01-06T15:01:59.139Z,2.03
2023-01-06T15:04:30.678Z,1.70
2023-01-06T15:07:00.292Z,1.97
2023-01-06T15:09:27.712Z,2.05
2023-01-06T15:11:54.639Z,1.90
2023-01-06T15:14:30.087Z,1.98
2023-01-06T15:17:00.660Z,1.80
2023-01-06T15:19:27.456Z,2.30
2023-01-06T15:21:54.819Z,2.33
2023-01-06T15:24:27.959Z,3.17
2023-01-06T15:26:57.078Z,3.33
2023-01-06T15:29:25.543Z,2.65
2023-01-06T15:31:54.419Z,2.78
2023-01-06T15:34:25.827Z,2.67
2023-01-06T15:36:55.072Z,3.00
2023-01-06T15:39:27.809Z,2.40
2023-01-06T15:41:56.163Z,2.77
2023-01-06T15:44:27.974Z,2.92
2023-01-06T15:47:08.456Z,3.00
2023-01-06T15:49:40.119Z,3.20
2023-01-06T15:52:20.612Z,3.05
2023-01-06T15:54:47.497Z,3.50
2023-01-06T15:57:16.906Z,3.97
2023-01-06T16:00:15.569Z,4.38
2023-01-06T16:02:42.219Z,4.65
2023-01-06T16:05:36.474Z,5.18
2023-01-06T16:08:05.315Z,5.88
2023-01-06T16:10:37.948Z,8.10
2023-01-06T16:13:29.420Z,7.28
2023-01-06T16:16:04.640Z,6.32
2023-01-06T16:18:36.677Z,5.38
2023-01-06T16:21:27.361Z,6.05
2023-01-06T16:23:57.020Z,6.38
2023-01-06T16:26:27.232Z,5.10
2023-01-06T16:28:56.835Z,3.78
2023-01-06T16:31:40.139Z,3.00
2023-01-06T16:34:21.952Z,3.28
2023-01-06T16:36:54.886Z,3.65
2023-01-06T16:39:21.594Z,4.15
2023-01-06T16:42:00.415Z,3.38
2023-01-06T16:44:31.365Z,4.13
2023-01-06T16:47:02.184Z,6.03
2023-01-06T16:49:32.026Z,5.65
2023-01-06T16:51:59.731Z,4.90
2023-01-06T16:54:26.389Z,4.88
2023-01-06T16:56:53.055Z,3.83
2023-01-06T16:59:22.417Z,5.30
2023-01-06T17:01:49.348Z,4.93
2023-01-06T17:04:16.100Z,5.22
2023-01-06T17:06:45.716Z,4.70
2023-01-06T17:09:23.120Z,4.97
2023-01-06T17:11:51.290Z,4.45
2023-01-06T17:14:20.323Z,5.40
2023-01-06T17:16:47.557Z,5.35
2023-01-06T17:19:20.020Z,5.60
2023-01-06T17:21:48.706Z,3.60
2023-01-06T17:24:18.414Z,3.53
2023-01-06T17:26:53.977Z,2.35
2023-01-06T17:29:21.085Z,2.47
2023-01-06T17:31:54.852Z,2.88
2023-01-06T17:34:24.961Z,2.90
2023-01-06T17:36:53.593Z,3.13
2023-01-06T17:39:31.093Z,3.15
2023-01-06T17:42:26.092Z,3.40
2023-01-06T17:44:58.161Z,3.50
2023-01-06T17:47:38.209Z,3.17
2023-01-06T17:50:26.174Z,4.38
2023-01-06T17:53:28.919Z,3.53
2023-01-06T17:56:01.118Z,2.85
2023-01-06T17:58:30.709Z,3.10
2023-01-06T18:00:58.812Z,4.07
2023-01-06T18:03:27.505Z,3.95
2023-01-06T18:06:08.529Z,3.88
2023-01-06T18:08:38.317Z,3.83
2023-01-06T18:11:10.924Z,3.78
2023-01-06T18:13:39.963Z,3.30
2023-01-06T18:16:21.725Z,3.05
2023-01-06T18:18:48.584Z,2.88
2023-01-06T18:21:15.261Z,3.17
2023-01-06T18:23:44.686Z,3.47
2023-01-06T18:26:26.601Z,3.50
2023-01-06T18:28:57.465Z,3.10
2023-01-06T18:31:24.306Z,3.08
2023-01-06T18:33:51.496Z,3.50
2023-01-06T18:36:18.065Z,3.00
2023-01-06T18:38:45.366Z,3.50
2023-01-06T18:41:12.442Z,3.58
2023-01-06T18:43:40.670Z,3.67
2023-01-06T18:46:16.674Z,4.13
2023-01-06T18:48:44.633Z,4.85
2023-01-06T18:51:19.069Z,6.07
2023-01-06T18:53:47.423Z,5.47
2023-01-06T18:56:21.078Z,5.57
2023-01-06T18:58:53.235Z,5.15
2023-01-06T19:01:25.145Z,4.32
2023-01-06T19:04:16.752Z,5.53
2023-01-06T19:06:51.231Z,3.75
2023-01-06T19:09:29.994Z,3.92
2023-01-06T19:12:08.693Z,3.58
2023-01-06T19:14:49.160Z,3.55
2023-01-06T19:17:27.227Z,3.97
2023-01-06T19:19:54.040Z,3.55
2023-01-06T19:22:28.953Z,4.13
2023-01-06T19:25:21.865Z,3.38
2023-01-06T19:27:50.445Z,3.67
2023-01-06T19:30:17.238Z,4.07
2023-01-06T19:32:44.014Z,3.63
2023-01-06T19:35:24.839Z,3.10
2023-01-06T19:38:06.548Z,3.58
2023-01-06T19:40:40.242Z,3.65
2023-01-06T19:43:16.824Z,2.97
2023-01-06T19:45:43.956Z,3.30
2023-01-06T19:48:41.396Z,3.58
2023-01-06T19:51:34.016Z,3.83
2023-01-06T19:54:04.761Z,3.53
2023-01-06T19:56:37.356Z,3.28
2023-01-06T19:59:15.382Z,3.67
2023-01-06T20:01:42.206Z,3.03
2023-01-06T20:04:29.117Z,3.70
2023-01-06T20:06:55.754Z,5.07
2023-01-06T20:09:22.366Z,5.70
2023-01-06T20:11:50.736Z,4.93
2023-01-06T20:14:18.957Z,5.53
2023-01-06T20:16:46.780Z,4.57
2023-01-06T20:19:15.640Z,5.00
2023-01-06T20:21:43.399Z,4.00
2023-01-06T20:24:11.227Z,3.88
2023-01-06T20:26:37.890Z,3.35
2023-01-06T20:29:04.818Z,3.65
2023-01-06T20:31:32.124Z,3.65
2023-01-06T20:33:59.264Z,4.15
2023-01-06T20:36:26.475Z,4.20
2023-01-06T20:38:53.395Z,4.57
2023-01-06T20:41:20.059Z,3.38
2023-01-06T20:43:46.671Z,4.50
2023-01-06T20:46:14.620Z,4.20
2023-01-06T20:48:41.602Z,3.55
2023-01-06T20:51:08.891Z,4.30
2023-01-06T20:53:35.845Z,4.00
2023-01-06T20:56:02.556Z,4.07
2023-01-06T20:58:29.194Z,4.15
2023-01-06T21:00:55.897Z,3.97
2023-01-06T21:03:22.577Z,3.88
2023-01-06T21:05:49.243Z,3.63
2023-01-06T21:08:15.963Z,3.40
2023-01-06T21:10:42.646Z,4.03
2023-01-06T21:13:09.771Z,4.05
2023-01-06T21:15:36.442Z,4.32
2023-01-06T21:18:03.248Z,4.20
2023-01-06T21:20:30.232Z,4.68
2023-01-06T21:22:57.307Z,4.80
2023-01-06T21:25:24.863Z,5.72
2023-01-06T21:27:51.791Z,4.55
2023-01-06T21:30:18.551Z,3.95
2023-01-06T21:32:45.189Z,3.60
2023-01-06T21:35:11.810Z,3.75
2023-01-06T21:37:38.463Z,3.90
2023-01-06T21:40:09.086Z,4.20
2023-01-06T21:42:54.244Z,4.90
2023-01-06T21:45:21.071Z,4.10
2023-01-06T21:47:47.618Z,4.90
2023-01-06T21:50:14.276Z,6.13
2023-01-06T21:52:40.999Z,6.53
2023-01-06T21:55:07.989Z,6.53
2023-01-06T21:57:36.089Z,7.00
2023-01-06T22:00:04.667Z,7.03
2023-01-06T22:02:31.560Z,6.72
2023-01-06T22:04:58.445Z,6.47
2023-01-06T22:07:25.179Z,5.45
2023-01-06T22:09:53.403Z,5.35
2023-01-06T22:12:20.632Z,5.40
2023-01-06T22:14:50.404Z,4.82
2023-01-06T22:17:18.488Z,3.83
2023-01-06T22:19:46.250Z,4.20
2023-01-06T22:22:13.767Z,3.80
2023-01-06T22:24:40.997Z,4.68
2023-01-06T22:27:07.634Z,5.40
2023-01-06T22:29:34.238Z,5.03
2023-01-06T22:32:05.724Z,5.88
2023-01-06T22:34:32.482Z,6.90
2023-01-06T22:36:59.234Z,5.82
2023-01-06T22:39:25.905Z,7.03
2023-01-06T22:41:53.996Z,6.15
2023-01-06T22:44:20.969Z,6.40
2023-01-06T22:46:47.575Z,6.18
2023-01-06T22:49:15.136Z,6.72
2023-01-06T22:51:41.717Z,6.97
2023-01-06T22:54:08.310Z,6.93
2023-01-06T22:56:34.943Z,6.65
2023-01-06T22:59:01.625Z,6.60
2023-01-06T23:01:28.450Z,6.57
2023-01-06T23:03:55.172Z,5.63
2023-01-06T23:06:21.880Z,5.50
2023-01-06T23:08:59.486Z,5.88
2023-01-06T23:11:28.196Z,5.05
2023-01-06T23:13:57.114Z,4.45
2023-01-06T23:16:26.793Z,3.97
2023-01-06T23:18:53.995Z,4.63
2023-01-06T23:21:23.066Z,5.10
2023-01-06T23:23:51.146Z,4.57
2023-01-06T23:26:29.317Z,4.15
2023-01-06T23:28:57.309Z,4.53
2023-01-06T23:31:29.440Z,4.13
2023-01-06T23:33:58.740Z,5.68
2023-01-06T23:36:27.578Z,4.90
2023-01-06T23:38:55.707Z,5.38
2023-01-06T23:41:25.220Z,6.63
2023-01-06T23:43:52.579Z,5.68
2023-01-06T23:46:28.544Z,5.28
2023-01-06T23:48:56.218Z,5.80
2023-01-06T23:51:24.202Z,5.22
2023-01-06T23:53:52.544Z,7.03
2023-01-06T23:56:24.761Z,6.70
2023-01-06T23:58:58.073Z,6.32
